Time;durP1;ratioP1;P1;durP2;ratioP2;P2;SDS_P1;SDS_P2;PMS_P1;PMS_P2;Temp;Humidity;BMP_temperature;BMP_pressure;BME280_temperature;BME280_humidity;BME280_pressure;Samples;Min_cycle;Max_cycle;Signal;HPM_P1;HPM_P2
2024/04/25 00:01:37;;;;;;;5.80;5.20;;;;;;;10.20;100.00;98642.50;106143;1253;69074;-73
2024/04/25 00:04:05;;;;;;;5.30;4.80;;;;;;;10.17;100.00;98646.69;105989;1251;71422;-74
2024/04/25 00:06:32;;;;;;;7.60;5.80;;;;;;;10.15;100.00;98651.39;106089;1253;62804;-72
2024/04/25 00:08:59;;;;;;;6.90;5.40;;;;;;;10.14;100.00;98655.02;106019;1252;60515;-73
2024/04/25 00:11:27;;;;;;;9.50;5.60;;;;;;;10.15;100.00;98660.75;105995;1252;73437;-72
2024/04/25 00:13:55;;;;;;;6.50;5.40;;;;;;;10.14;100.00;98668.63;105865;1257;69178;-76
2024/04/25 00:16:23;;;;;;;6.20;5.60;;;;;;;10.13;100.00;98669.22;105992;1254;71934;-75
2024/04/25 00:18:50;;;;;;;8.10;5.70;;;;;;;10.10;100.00;98668.64;105797;1257;61610;-74
2024/04/25 00:21:17;;;;;;;10.60;7.00;;;;;;;10.10;100.00;98673.08;106013;1252;60521;-75
2024/04/25 00:23:44;;;;;;;7.00;5.70;;;;;;;10.11;100.00;98667.70;105970;1260;73847;-72
2024/04/25 00:26:12;;;;;;;8.70;6.20;;;;;;;10.08;100.00;98666.64;106000;1254;70060;-73
2024/04/25 00:28:39;;;;;;;7.80;6.50;;;;;;;10.04;100.00;98670.73;105926;1259;72641;-72
2024/04/25 00:31:07;;;;;;;11.10;6.90;;;;;;;10.01;100.00;98671.70;105987;1258;60539;-72
2024/04/25 00:33:34;;;;;;;9.00;6.60;;;;;;;9.97;100.00;98677.45;105825;1258;60450;-72
2024/04/25 00:36:01;;;;;;;10.30;7.30;;;;;;;9.94;100.00;98671.88;106182;1258;73993;-74
2024/04/25 00:38:28;;;;;;;8.40;6.40;;;;;;;9.93;100.00;98671.23;105996;1256;70308;-78
2024/04/25 00:40:56;;;;;;;6.90;6.10;;;;;;;9.90;100.00;98673.19;106695;1253;71541;-76
2024/04/25 00:43:30;;;;;;;8.60;6.50;;;;;;;9.88;100.00;98680.11;108787;1251;60739;-72
2024/04/25 00:45:58;;;;;;;7.40;6.60;;;;;;;9.86;100.00;98685.96;107666;1255;60625;-75
2024/04/25 00:48:26;;;;;;;6.80;6.10;;;;;;;9.85;100.00;98684.45;105964;1253;71984;-75
2024/04/25 00:50:55;;;;;;;6.50;5.70;;;;;;;9.86;100.00;98687.84;105953;1258;68739;-72
2024/04/25 00:53:22;;;;;;;7.60;6.50;;;;;;;9.87;100.00;98686.74;105976;1253;72050;-72
2024/04/25 00:55:49;;;;;;;12.00;6.60;;;;;;;9.87;100.00;98686.27;105858;1256;61712;-71
2024/04/25 00:58:16;;;;;;;8.30;6.70;;;;;;;9.88;100.00;98692.10;106039;1256;60413;-71
2024/04/25 01:00:44;;;;;;;7.10;5.60;;;;;;;9.89;100.00;98690.70;105819;1251;73894;-73
2024/04/25 01:03:13;;;;;;;7.20;6.00;;;;;;;9.90;100.00;98692.69;105955;1262;70516;-74
2024/04/25 01:05:41;;;;;;;10.70;6.40;;;;;;;9.90;100.00;98690.23;106023;1255;71463;-71
2024/04/25 01:08:08;;;;;;;9.60;6.40;;;;;;;9.90;100.00;98695.95;105812;1258;60480;-73
2024/04/25 01:10:36;;;;;;;8.00;6.10;;;;;;;9.90;100.00;98699.63;105812;1260;60857;-73
2024/04/25 01:13:03;;;;;;;8.30;6.10;;;;;;;9.91;100.00;98707.84;106158;1253;73775;-73
2024/04/25 01:15:30;;;;;;;10.80;6.70;;;;;;;9.92;100.00;98704.79;105842;1254;70144;-71
2024/04/25 01:18:01;;;;;;;8.30;6.80;;;;;;;9.94;100.00;98704.98;105822;1256;72748;-74
2024/04/25 01:20:28;;;;;;;10.50;7.00;;;;;;;9.96;100.00;98705.08;106085;1256;62760;-73
2024/04/25 01:22:55;;;;;;;8.90;6.80;;;;;;;9.94;100.00;98704.90;106027;1253;61308;-73
2024/04/25 01:25:23;;;;;;;10.50;7.60;;;;;;;9.92;100.00;98704.86;106054;1259;73441;-73
2024/04/25 01:27:50;;;;;;;10.20;6.00;;;;;;;9.87;100.00;98704.73;106451;1253;69179;-73
2024/04/25 01:30:17;;;;;;;9.80;6.50;;;;;;;9.84;100.00;98708.77;106258;1257;71984;-74
2024/04/25 01:32:45;;;;;;;9.00;6.80;;;;;;;9.82;100.00;98707.63;106008;1257;62212;-77
2024/04/25 01:35:12;;;;;;;7.00;6.30;;;;;;;9.79;100.00;98706.35;107485;1254;61094;-74
2024/04/25 01:37:40;;;;;;;7.30;6.60;;;;;;;9.79;100.00;98705.77;107830;1258;75670;-71
2024/04/25 01:40:08;;;;;;;11.80;7.50;;;;;;;9.77;100.00;98706.81;106843;1252;69055;-79
2024/04/25 01:42:35;;;;;;;8.70;6.80;;;;;;;9.77;100.00;98707.38;108471;1256;71356;-74
2024/04/25 01:45:03;;;;;;;9.00;5.70;;;;;;;9.79;100.00;98706.98;108855;1255;60379;-76
2024/04/25 01:47:30;;;;;;;7.50;5.80;;;;;;;9.85;100.00;98710.77;108694;1253;61690;-75
2024/04/25 01:49:58;;;;;;;30.50;20.90;;;;;;;9.92;100.00;98705.40;107967;1251;73310;-76
2024/04/25 01:52:25;;;;;;;18.20;13.90;;;;;;;9.97;100.00;98706.15;107457;1259;69025;-77
2024/04/25 01:54:52;;;;;;;10.10;6.30;;;;;;;10.00;100.00;98708.55;106021;1254;72658;-76
2024/04/25 01:57:19;;;;;;;9.90;5.90;;;;;;;10.01;100.00;98705.58;105796;1253;62180;-76
2024/04/25 01:59:47;;;;;;;10.10;6.60;;;;;;;10.02;100.00;98708.29;105801;1259;61143;-75
2024/04/25 02:02:15;;;;;;;11.20;6.70;;;;;;;10.02;100.00;98710.25;106029;1257;75065;-75
2024/04/25 02:04:43;;;;;;;8.60;6.80;;;;;;;10.03;100.00;98713.40;106119;1255;69082;-77
2024/04/25 02:07:12;;;;;;;15.60;7.40;;;;;;;10.03;100.00;98717.00;105872;1262;72581;-74
2024/04/25 02:09:39;;;;;;;8.90;6.80;;;;;;;10.06;100.00;98721.88;106024;1254;61214;-75
2024/04/25 02:12:06;;;;;;;7.80;6.80;;;;;;;10.06;100.00;98724.55;105933;1255;61265;-75
2024/04/25 02:14:34;;;;;;;11.20;7.70;;;;;;;10.06;100.00;98725.05;106127;1261;74945;-75
2024/04/25 02:17:02;;;;;;;12.90;8.70;;;;;;;10.07;100.00;98725.88;105978;1258;69268;-75
2024/04/25 02:19:29;;;;;;;15.00;9.30;;;;;;;10.08;100.00;98724.99;106139;1256;71142;-74
2024/04/25 02:27:29;;;;;;;12.40;8.40;;;;;;;10.10;100.00;98745.83;106280;1261;73475;-74
2024/04/25 02:29:57;;;;;;;10.80;8.80;;;;;;;10.10;100.00;98746.52;107685;1251;68848;-74
2024/04/25 02:32:24;;;;;;;11.50;8.70;;;;;;;10.10;100.00;98755.05;108225;1254;71427;-76
2024/04/25 02:34:52;;;;;;;10.30;7.80;;;;;;;10.11;100.00;98754.21;106186;1257;61237;-75
2024/04/25 02:37:19;;;;;;;10.10;7.90;;;;;;;10.10;100.00;98755.17;106030;1254;61185;-77
2024/04/25 02:39:47;;;;;;;11.30;8.00;;;;;;;10.09;100.00;98764.81;105912;1257;73576;-75
2024/04/25 02:42:15;;;;;;;12.20;8.40;;;;;;;10.11;100.00;98768.67;106686;1254;70294;-73
2024/04/25 02:44:42;;;;;;;10.80;8.00;;;;;;;10.08;100.00;98774.71;106286;1253;72781;-72
2024/04/25 02:47:09;;;;;;;9.20;7.30;;;;;;;10.07;100.00;98767.61;106225;1253;61645;-71
2024/04/25 02:49:37;;;;;;;9.50;7.40;;;;;;;10.06;100.00;98768.57;106616;1258;61139;-73
2024/04/25 02:52:05;;;;;;;11.20;7.10;;;;;;;10.01;100.00;98771.25;106152;1259;73609;-74
2024/04/25 02:54:32;;;;;;;10.00;7.30;;;;;;;9.97;100.00;98768.04;105992;1255;69212;-76
2024/04/25 02:56:59;;;;;;;13.90;8.00;;;;;;;9.98;100.00;98773.38;105883;1257;72718;-74
2024/04/25 02:59:27;;;;;;;10.50;8.10;;;;;;;9.97;100.00;98768.89;105935;1255;61782;-73
2024/04/25 03:01:54;;;;;;;11.90;7.30;;;;;;;9.96;100.00;98769.00;105878;1258;61218;-73
2024/04/25 03:04:21;;;;;;;8.40;7.10;;;;;;;9.98;100.00;98766.65;105952;1256;73570;-73
2024/04/25 03:06:49;;;;;;;9.30;7.20;;;;;;;9.99;100.00;98766.21;105994;1258;69430;-74
2024/04/25 03:09:16;;;;;;;10.00;7.20;;;;;;;10.01;100.00;98766.73;105954;1257;72473;-76
2024/04/25 03:11:43;;;;;;;10.00;8.80;;;;;;;10.03;100.00;98765.40;105936;1256;61171;-74
2024/04/25 03:14:11;;;;;;;10.50;7.50;;;;;;;9.99;100.00;98770.83;106056;1251;61308;-75
2024/04/25 03:16:38;;;;;;;9.50;7.00;;;;;;;9.98;100.00;98777.17;106731;1255;75858;-72
2024/04/25 03:19:05;;;;;;;9.10;8.20;;;;;;;9.97;100.00;98776.68;106052;1260;70039;-73
2024/04/25 03:21:33;;;;;;;12.00;8.50;;;;;;;9.92;100.00;98771.35;106060;1256;71522;-73
2024/04/25 03:24:00;;;;;;;12.00;8.20;;;;;;;9.91;100.00;98775.35;106572;1254;61761;-72
2024/04/25 03:26:27;;;;;;;11.20;7.60;;;;;;;9.96;100.00;98772.80;106931;1254;61331;-71
2024/04/25 03:28:55;;;;;;;11.80;8.40;;;;;;;10.01;100.00;98779.73;106157;1253;74632;-73
2024/04/25 03:31:22;;;;;;;9.50;8.40;;;;;;;10.02;100.00;98776.30;105777;1254;69981;-74
2024/04/25 03:33:49;;;;;;;9.90;8.40;;;;;;;10.04;100.00;98772.75;105986;1258;71389;-74
2024/04/25 03:36:17;;;;;;;9.80;7.60;;;;;;;10.10;100.00;98766.81;105936;1257;61548;-74
2024/04/25 03:38:44;;;;;;;11.20;8.50;;;;;;;10.16;100.00;98764.67;106065;1254;61349;-72
2024/04/25 03:41:15;;;;;;;9.40;7.80;;;;;;;10.18;100.00;98759.11;105885;1257;73431;-73
2024/04/25 03:43:43;;;;;;;9.70;7.80;;;;;;;10.24;100.00;98756.91;105887;1257;69055;-73
2024/04/25 03:46:11;;;;;;;11.00;8.40;;;;;;;10.29;100.00;98764.98;105969;1254;72691;-74
2024/04/25 03:48:39;;;;;;;9.60;7.60;;;;;;;10.37;100.00;98772.90;105894;1254;61321;-73
2024/04/25 03:51:06;;;;;;;8.80;7.40;;;;;;;10.39;100.00;98774.95;105812;1254;61330;-74
2024/04/25 03:53:33;;;;;;;8.70;7.70;;;;;;;10.46;100.00;98772.49;105918;1254;74740;-73
2024/04/25 03:56:01;;;;;;;11.10;7.10;;;;;;;10.62;100.00;98765.76;106029;1251;70193;-72
2024/04/25 03:58:28;;;;;;;10.80;7.60;;;;;;;10.81;100.00;98764.27;105992;1257;71351;-74
2024/04/25 04:00:56;;;;;;;10.70;7.20;;;;;;;11.01;100.00;98767.39;105992;1256;61142;-75
2024/04/25 04:03:23;;;;;;;9.40;8.30;;;;;;;11.22;100.00;98779.30;106001;1254;61762;-73
2024/04/25 04:05:51;;;;;;;10.50;8.30;;;;;;;11.40;100.00;98789.49;105880;1257;73475;-74
2024/04/25 04:08:20;;;;;;;8.60;7.60;;;;;;;11.58;100.00;98790.45;105961;1259;71034;-76
2024/04/25 04:10:47;;;;;;;11.90;8.60;;;;;;;11.69;100.00;98789.14;106206;1251;71603;-75
2024/04/25 04:13:15;;;;;;;10.00;7.50;;;;;;;11.79;100.00;98789.89;106309;1257;61281;-75
2024/04/25 04:15:42;;;;;;;9.50;8.30;;;;;;;11.87;99.85;98790.38;105932;1254;61313;-73
2024/04/25 04:18:10;;;;;;;9.00;8.10;;;;;;;11.89;99.64;98791.54;106021;1258;74438;-72
2024/04/25 04:20:37;;;;;;;9.60;7.70;;;;;;;11.96;99.24;98795.86;106433;1257;69004;-73
2024/04/25 04:23:04;;;;;;;8.80;7.70;;;;;;;12.12;98.58;98799.80;106581;1257;71399;-72
2024/04/25 04:25:32;;;;;;;9.90;8.00;;;;;;;12.38;97.51;98803.88;106031;1254;61324;-74
2024/04/25 04:27:59;;;;;;;12.70;8.70;;;;;;;12.54;95.33;98801.67;106128;1254;61327;-75
2024/04/25 04:30:26;;;;;;;11.40;9.60;;;;;;;12.66;95.12;98804.06;105940;1257;74472;-73
2024/04/25 04:32:54;;;;;;;10.30;8.40;;;;;;;12.75;94.88;98801.76;106032;1258;70589;-76
2024/04/25 04:35:21;;;;;;;9.50;8.20;;;;;;;12.77;94.52;98804.67;105968;1257;71714;-74
2024/04/25 04:37:48;;;;;;;9.50;7.80;;;;;;;12.83;94.75;98810.52;106106;1254;61285;-75
2024/04/25 04:40:16;;;;;;;9.00;8.10;;;;;;;12.99;94.96;98811.22;106177;1253;61208;-72
2024/04/25 04:42:43;;;;;;;12.60;9.00;;;;;;;13.22;95.94;98806.16;105952;1253;73698;-75
2024/04/25 04:45:10;;;;;;;11.20;8.90;;;;;;;13.44;96.74;98807.81;106171;1257;68711;-75
2024/04/25 04:47:38;;;;;;;11.00;9.20;;;;;;;13.63;95.95;98802.59;105913;1257;73767;-75
2024/04/25 04:50:05;;;;;;;10.00;8.70;;;;;;;13.70;94.19;98800.34;105755;1254;61257;-74
2024/04/25 04:52:33;;;;;;;11.80;9.90;;;;;;;13.73;94.00;98800.61;105924;1258;61289;-75
2024/04/25 04:55:01;;;;;;;12.70;9.20;;;;;;;13.72;93.16;98801.00;106097;1254;72193;-73
2024/04/25 04:57:28;;;;;;;10.00;8.90;;;;;;;13.69;93.01;98802.39;105966;1254;73773;-75
2024/04/25 04:59:55;;;;;;;10.10;8.50;;;;;;;13.70;93.89;98805.30;105999;1254;74849;-73
2024/04/25 05:02:23;;;;;;;13.30;9.10;;;;;;;13.76;94.39;98809.15;105814;1255;64159;-75
2024/04/25 05:04:50;;;;;;;11.60;8.60;;;;;;;13.88;94.16;98814.27;105958;1257;62419;-74
2024/04/25 05:07:18;;;;;;;11.30;8.60;;;;;;;13.90;93.08;98814.83;106026;1257;75573;-74
2024/04/25 05:09:46;;;;;;;10.60;8.30;;;;;;;13.89;92.80;98817.75;105984;1256;70331;-72
2024/04/25 05:12:13;;;;;;;11.10;8.40;;;;;;;13.92;92.35;98825.83;106281;1254;73615;-75
2024/04/25 05:14:41;;;;;;;13.40;9.20;;;;;;;13.91;92.30;98823.37;108293;1253;63906;-77
2024/04/25 05:17:09;;;;;;;12.50;9.60;;;;;;;13.98;93.33;98821.79;108387;1251;61599;-76
2024/04/25 05:19:36;;;;;;;10.60;9.40;;;;;;;14.04;92.97;98822.08;105932;1254;78140;-77
2024/04/25 05:22:04;;;;;;;11.00;8.50;;;;;;;14.07;92.36;98824.95;106169;1257;71785;-76
2024/04/25 05:24:31;;;;;;;10.70;8.70;;;;;;;14.12;92.01;98824.64;106043;1258;74827;-74
2024/04/25 05:26:59;;;;;;;9.60;7.80;;;;;;;14.18;90.76;98827.43;106196;1254;61361;-77
2024/04/25 05:29:26;;;;;;;9.50;7.80;;;;;;;14.20;90.73;98827.42;106454;1257;61848;-75
2024/04/25 05:31:54;;;;;;;8.50;7.40;;;;;;;14.24;90.84;98819.75;106276;1257;74833;-74
2024/04/25 05:34:21;;;;;;;9.40;7.60;;;;;;;14.35;90.85;98823.35;106216;1257;72384;-74
2024/04/25 05:36:48;;;;;;;9.50;7.30;;;;;;;14.44;90.23;98827.87;106235;1253;72202;-75
2024/04/25 05:39:16;;;;;;;10.30;7.90;;;;;;;14.46;90.10;98822.59;106123;1257;62648;-76
2024/04/25 05:41:43;;;;;;;8.70;7.70;;;;;;;14.50;89.81;98823.43;106067;1251;61241;-76
2024/04/25 05:44:10;;;;;;;8.80;7.90;;;;;;;14.59;90.38;98820.30;106025;1257;74547;-77
2024/04/25 05:46:38;;;;;;;8.30;7.50;;;;;;;14.69;90.52;98820.71;105931;1254;71766;-77
2024/04/25 05:49:05;;;;;;;6.80;6.10;;;;;;;14.77;90.04;98824.34;105909;1257;73837;-77
2024/04/25 05:51:33;;;;;;;7.00;5.50;;;;;;;14.86;87.14;98827.62;105997;1253;64006;-77
2024/04/25 05:54:00;;;;;;;7.00;6.30;;;;;;;14.88;86.27;98825.07;105725;1261;62268;-79
2024/04/25 05:56:28;;;;;;;9.60;6.50;;;;;;;14.91;87.77;98826.39;106042;1256;76690;-76
2024/04/25 05:58:56;;;;;;;7.70;5.30;;;;;;;15.01;86.88;98824.48;105986;1254;71359;-77
2024/04/25 06:01:24;;;;;;;5.70;5.10;;;;;;;15.11;85.84;98823.92;106214;1251;75255;-77
2024/04/25 06:03:52;;;;;;;9.80;5.90;;;;;;;15.17;85.18;98822.55;106173;1257;61189;-81
2024/04/25 06:06:19;;;;;;;7.90;6.60;;;;;;;15.21;84.40;98824.45;105819;1259;61266;-76
2024/04/25 06:08:47;;;;;;;8.20;6.90;;;;;;;15.26;83.44;98823.40;107631;1253;76979;-77
2024/04/25 06:11:15;;;;;;;7.90;7.10;;;;;;;15.25;83.26;98826.17;108608;1254;70974;-78
2024/04/25 06:13:42;;;;;;;11.60;7.70;;;;;;;15.28;83.38;98835.23;106501;1258;73037;-77
2024/04/25 06:16:10;;;;;;;8.80;7.70;;;;;;;15.33;83.79;98832.31;105878;1252;62211;-77
2024/04/25 06:18:37;;;;;;;9.50;7.40;;;;;;;15.38;84.07;98833.50;105996;1253;62898;-77
2024/04/25 06:21:05;;;;;;;10.70;7.20;;;;;;;15.46;83.87;98843.39;105933;1256;75707;-77
2024/04/25 06:23:34;;;;;;;9.60;8.40;;;;;;;15.50;83.39;98848.00;105928;1257;72307;-77
2024/04/25 06:26:01;;;;;;;11.50;7.70;;;;;;;15.47;83.33;98859.96;105813;1254;74685;-77
2024/04/25 06:28:29;;;;;;;8.40;6.20;;;;;;;15.43;81.22;98864.17;105931;1253;63934;-78
2024/04/25 06:30:57;;;;;;;11.70;7.90;;;;;;;15.40;81.87;98864.89;105932;1254;61138;-78
2024/04/25 06:33:24;;;;;;;13.30;8.60;;;;;;;15.34;82.78;98867.45;105974;1254;75653;-76
2024/04/25 06:35:52;;;;;;;12.50;8.80;;;;;;;15.30;83.31;98866.15;105987;1251;71514;-76
2024/04/25 06:38:19;;;;;;;12.60;9.00;;;;;;;15.35;83.63;98866.05;106004;1254;72736;-75
2024/04/25 06:40:50;;;;;;;12.20;8.70;;;;;;;15.43;83.51;98864.87;105921;1257;61308;-76
2024/04/25 06:43:17;;;;;;;13.70;9.80;;;;;;;15.45;83.51;98865.80;106231;1251;62751;-78
2024/04/25 06:45:44;;;;;;;10.50;7.60;;;;;;;15.45;83.69;98864.40;106081;1260;75742;-76
2024/04/25 06:48:12;;;;;;;8.10;6.10;;;;;;;15.52;84.15;98864.61;105826;1260;71076;-76
2024/04/25 06:50:42;;;;;;;13.80;7.30;;;;;;;15.54;82.97;98871.05;106029;1255;74924;-75
2024/04/25 06:53:10;;;;;;;9.70;6.10;;;;;;;15.52;81.93;98872.27;105924;1256;64107;-75
2024/04/25 06:55:37;;;;;;;6.80;6.10;;;;;;;15.57;81.56;98875.64;106036;1254;61451;-76
2024/04/25 06:58:04;;;;;;;8.60;6.10;;;;;;;15.59;80.85;98877.30;106064;1251;76221;-77
2024/04/25 07:00:32;;;;;;;7.30;6.60;;;;;;;15.59;80.17;98884.63;106117;1257;70690;-78
2024/04/25 07:02:59;;;;;;;9.70;6.60;;;;;;;15.63;80.25;98883.90;107361;1253;76309;-78
2024/04/25 07:05:27;;;;;;;9.10;6.50;;;;;;;15.67;80.08;98881.55;107982;1256;63528;-76
2024/04/25 07:07:56;;;;;;;6.20;5.40;;;;;;;15.73;79.93;98882.16;106999;1253;62022;-77
2024/04/25 07:10:23;;;;;;;5.50;4.20;;;;;;;15.82;78.59;98885.94;106242;1254;74520;-78
2024/04/25 07:12:51;;;;;;;5.20;4.60;;;;;;;15.91;76.56;98884.16;106185;1251;72488;-76
2024/04/25 07:15:21;;;;;;;4.60;4.20;;;;;;;16.00;76.07;98881.75;106121;1251;74097;-78
2024/04/25 07:17:51;;;;;;;8.90;4.70;;;;;;;16.16;76.02;98889.46;107255;1253;64353;-82
2024/04/25 07:20:19;;;;;;;4.90;4.40;;;;;;;16.31;74.15;98898.77;106224;1255;61215;-78
2024/04/25 07:22:46;;;;;;;6.30;4.60;;;;;;;16.37;72.92;98905.15;105888;1258;76592;-77
2024/04/25 07:25:14;;;;;;;5.70;5.00;;;;;;;16.39;72.22;98903.80;106028;1254;71331;-79
2024/04/25 07:27:42;;;;;;;5.60;5.10;;;;;;;16.43;72.10;98901.45;105988;1256;73908;-77
2024/04/25 07:30:09;;;;;;;8.20;5.80;;;;;;;16.51;73.50;98903.97;106303;1257;63944;-77
2024/04/25 07:32:38;;;;;;;7.40;5.70;;;;;;;16.63;73.86;98907.41;106183;1258;61323;-79
2024/04/25 07:35:06;;;;;;;5.50;5.00;;;;;;;16.74;73.37;98903.77;106240;1251;76490;-79
2024/04/25 07:37:33;;;;;;;6.90;5.50;;;;;;;16.86;72.72;98900.91;106190;1253;70244;-77
2024/04/25 07:40:01;;;;;;;8.40;5.00;;;;;;;17.01;72.94;98902.71;106514;1253;72539;-82
2024/04/25 07:42:29;;;;;;;6.40;5.00;;;;;;;17.15;71.52;98908.67;106329;1253;62741;-81
2024/04/25 07:44:57;;;;;;;9.70;4.60;;;;;;;17.19;67.89;98911.38;106199;1257;61219;-82
2024/04/25 07:47:24;;;;;;;6.60;4.40;;;;;;;17.18;68.94;98910.81;106544;1254;75619;-84
2024/04/25 07:49:52;;;;;;;5.10;4.10;;;;;;;17.23;69.51;98912.19;106584;1257;72810;-81
2024/04/25 07:52:21;;;;;;;6.00;3.80;;;;;;;17.32;68.85;98908.41;106433;1253;75075;-83
2024/04/25 07:54:49;;;;;;;5.80;3.50;;;;;;;17.37;68.40;98911.38;106410;1258;61203;-82
2024/04/25 07:57:19;;;;;;;4.40;3.60;;;;;;;17.42;68.29;98911.66;107889;1251;61159;-78
2024/04/25 07:59:47;;;;;;;5.00;3.90;;;;;;;17.55;68.88;98914.53;108514;1254;75584;-78
2024/04/25 08:02:15;;;;;;;6.80;3.90;;;;;;;17.62;68.13;98914.77;107172;1254;71670;-80
2024/04/25 08:04:43;;;;;;;4.70;3.60;;;;;;;17.59;67.87;98910.95;106325;1255;74798;-83
2024/04/25 08:07:11;;;;;;;6.10;4.10;;;;;;;17.55;67.92;98912.75;107717;1253;61215;-84
2024/04/25 08:09:38;;;;;;;6.40;3.70;;;;;;;17.54;68.35;98911.65;107276;1254;62052;-81
2024/04/25 08:12:06;;;;;;;5.40;3.40;;;;;;;17.58;68.19;98908.61;107135;1253;75589;-80
2024/04/25 08:14:35;;;;;;;4.70;3.10;;;;;;;17.68;67.73;98910.14;106410;1251;74202;-80
2024/04/25 08:17:02;;;;;;;4.70;3.20;;;;;;;17.73;67.44;98901.65;106459;1251;73602;-80
2024/04/25 08:19:30;;;;;;;5.00;3.80;;;;;;;17.76;67.07;98905.60;106249;1254;62506;-81
2024/04/25 08:22:00;;;;;;;5.80;3.90;;;;;;;17.82;67.42;98904.42;107486;1253;61214;-91
2024/04/25 08:28:52;;;;;;;4.30;3.30;;;;;;;18.14;66.19;98906.90;107799;1261;70785;-83
2024/04/25 08:31:20;;;;;;;5.30;3.60;;;;;;;18.19;65.69;98901.09;106602;1267;73819;-81
2024/04/25 08:33:48;;;;;;;3.70;3.30;;;;;;;18.31;66.01;98900.84;107294;1260;61450;-83
2024/04/25 08:36:18;;;;;;;4.20;2.70;;;;;;;18.44;64.61;98904.05;105911;1261;61304;-79
2024/04/25 08:38:45;;;;;;;3.70;3.30;;;;;;;18.57;63.45;98899.64;105498;1263;75657;-79
2024/04/25 08:41:17;;;;;;;4.70;2.90;;;;;;;18.69;62.90;98896.65;105365;1266;71353;-80
2024/04/25 08:43:45;;;;;;;3.80;3.30;;;;;;;18.81;62.55;98888.98;105411;1267;74699;-79
2024/04/25 08:46:16;;;;;;;4.30;3.50;;;;;;;18.95;63.30;98894.05;105549;1267;62418;-81
2024/04/25 08:48:44;;;;;;;4.90;3.40;;;;;;;19.13;62.92;98890.21;105633;1270;61490;-81
2024/04/25 08:51:11;;;;;;;6.20;3.40;;;;;;;19.31;61.86;98892.10;105992;1263;75315;-81
2024/04/25 08:53:39;;;;;;;6.40;3.10;;;;;;;19.44;60.87;98883.95;108279;1260;70323;-80
2024/04/25 08:56:08;;;;;;;5.90;3.10;;;;;;;19.49;60.61;98880.25;108481;1267;75050;-82
2024/04/25 08:58:35;;;;;;;3.30;3.00;;;;;;;19.53;60.31;98875.30;106050;1266;61252;-81
2024/04/25 09:01:03;;;;;;;3.60;3.30;;;;;;;19.55;59.95;98882.43;106296;1267;61281;-84
2024/04/25 09:03:31;;;;;;;5.00;3.20;;;;;;;19.60;59.24;98877.77;106418;1264;77046;-84
2024/04/25 09:05:58;;;;;;;4.90;3.10;;;;;;;19.63;59.19;98882.23;106078;1267;70948;-74
2024/04/25 09:08:26;;;;;;;3.30;3.00;;;;;;;19.70;59.44;98880.66;105545;1266;72980;-75
2024/04/25 09:10:54;;;;;;;3.60;3.30;;;;;;;19.81;59.47;98883.26;105435;1265;61407;-74
2024/04/25 09:13:22;;;;;;;5.00;3.70;;;;;;;19.90;58.24;98884.02;105276;1261;62082;-74
2024/04/25 09:15:50;;;;;;;3.90;3.20;;;;;;;19.96;58.03;98887.55;105384;1275;76849;-76
2024/04/25 09:18:17;;;;;;;3.90;3.10;;;;;;;20.07;58.86;98891.13;105344;1266;71270;-73
2024/04/25 09:20:45;;;;;;;4.70;2.90;;;;;;;20.21;57.47;98889.09;105234;1267;74553;-74
2024/04/25 09:23:13;;;;;;;3.60;2.70;;;;;;;20.36;56.69;98890.22;105230;1266;62512;-75
2024/04/25 09:25:40;;;;;;;3.10;2.80;;;;;;;20.64;56.24;98886.33;105134;1266;197320;-75
2024/04/25 09:28:54;;;;;;;6.80;3.40;;;;;;;21.29;55.27;98889.54;102967;1292;600965;-77
2024/04/25 09:31:22;;;;;;;6.30;2.70;;;;;;;21.82;54.81;98881.79;104887;1272;61129;-77
2024/04/25 09:33:54;;;;;;;5.60;3.30;;;;;;;22.39;53.95;98877.44;105545;1266;60908;-75
2024/04/25 09:36:22;;;;;;;5.30;3.30;;;;;;;22.84;52.33;98883.89;105126;1269;75655;-77
2024/04/25 09:38:50;;;;;;;8.10;3.00;;;;;;;22.95;50.94;98888.72;104919;1275;71439;-76
2024/04/25 09:41:18;;;;;;;2.80;2.50;;;;;;;22.84;51.32;98887.15;104838;1268;74685;-75
2024/04/25 09:43:45;;;;;;;7.00;3.30;;;;;;;22.67;51.35;98890.86;105038;1266;196728;-75
2024/04/25 09:46:19;;;;;;;3.90;2.50;;;;;;;22.43;50.52;98889.84;105150;1264;62401;-75
2024/04/25 09:48:49;;;;;;;5.30;2.60;;;;;;;22.09;50.98;98900.03;106551;1265;72632;-75
2024/04/25 09:51:28;;;;;;;5.30;2.70;;;;;;;21.73;50.86;98899.25;106710;1264;71445;-82
2024/04/25 09:53:59;;;;;;;4.40;2.80;;;;;;;21.29;51.65;98897.47;105468;1273;73865;-79
2024/04/25 09:56:29;;;;;;;4.60;2.60;;;;;;;20.99;52.48;98902.31;106004;1269;60564;-79
2024/04/25 09:59:00;;;;;;;4.60;3.10;;;;;;;20.79;52.71;98899.06;106565;1262;62474;-81
2024/04/25 10:01:28;;;;;;;4.00;2.80;;;;;;;20.71;53.58;98893.75;106166;1263;73516;-83
2024/04/25 10:03:55;;;;;;;5.20;2.70;;;;;;;20.84;53.83;98894.90;106327;1260;71225;-83
2024/04/25 10:06:23;;;;;;;3.30;2.50;;;;;;;20.99;53.05;98884.23;106157;1263;73190;-83
2024/04/25 10:08:50;;;;;;;5.40;3.10;;;;;;;21.18;53.57;98880.27;105665;1266;61335;-82
2024/04/25 10:11:18;;;;;;;7.10;3.40;;;;;;;21.40;52.83;98875.15;105874;1260;61722;-84
2024/04/25 10:13:49;;;;;;;4.00;2.70;;;;;;;21.75;52.17;98877.00;106091;1263;75948;-83
2024/04/25 10:16:18;;;;;;;3.80;2.60;;;;;;;22.18;51.47;98875.67;106487;1259;72161;-81
2024/04/25 10:18:50;;;;;;;5.80;2.80;;;;;;;22.56;49.71;98877.20;108344;1260;73150;-90
2024/04/25 10:21:19;;;;;;;4.30;2.50;;;;;;;22.71;48.62;98879.29;108431;1269;61835;-85
2024/04/25 10:23:52;;;;;;;2.90;2.50;;;;;;;22.65;48.30;98869.36;108360;1254;61321;-85
2024/04/25 10:26:21;;;;;;;3.10;2.80;;;;;;;22.63;49.22;98864.39;106682;1253;74977;-86
2024/04/25 10:29:02;;;;;;;3.30;2.60;;;;;;;22.71;49.26;98872.79;107429;1253;71230;-87
2024/04/25 10:31:35;;;;;;;2.70;2.20;;;;;;;22.78;49.42;98886.11;106342;1259;73847;-84
2024/04/25 10:34:03;;;;;;;4.50;2.50;;;;;;;22.79;49.10;98884.87;106363;1253;62263;-84
2024/04/25 10:36:35;;;;;;;4.00;2.20;;;;;;;22.72;49.00;98886.06;106393;1253;61745;-82
2024/04/25 10:39:03;;;;;;;6.30;2.60;;;;;;;22.55;49.46;98876.06;107542;1253;77467;-85
2024/04/25 10:41:38;;;;;;;3.80;2.70;;;;;;;22.38;49.70;98872.84;108571;1253;70434;-84
2024/04/25 10:44:08;;;;;;;5.40;2.60;;;;;;;22.21;49.96;98879.14;108845;1252;73470;-85
2024/04/25 10:46:36;;;;;;;4.40;2.40;;;;;;;22.00;50.05;98874.95;109212;1253;60882;-83
2024/04/25 10:49:04;;;;;;;3.70;2.50;;;;;;;21.84;50.38;98872.93;109065;1253;60408;-87
2024/04/25 10:51:39;;;;;;;4.80;2.90;;;;;;;21.67;50.97;98877.98;108943;1252;75016;-85
2024/04/25 10:54:07;;;;;;;6.30;3.10;;;;;;;21.51;51.18;98878.48;108262;1251;71510;-84
2024/04/25 10:56:35;;;;;;;4.50;2.80;;;;;;;21.25;50.95;98878.23;107703;1253;72503;-82
2024/04/25 10:59:02;;;;;;;11.30;3.50;;;;;;;21.01;52.08;98872.80;106332;1253;60972;-84
2024/04/25 11:01:30;;;;;;;5.20;3.00;;;;;;;20.88;52.35;98875.83;106118;1253;62441;-79
2024/04/25 11:03:59;;;;;;;4.80;3.30;;;;;;;20.84;52.85;98871.02;105921;1253;75022;-78
2024/04/25 11:06:28;;;;;;;3.20;2.90;;;;;;;20.80;53.20;98865.49;106757;1253;71806;-84
2024/04/25 11:08:55;;;;;;;4.30;3.00;;;;;;;20.84;53.86;98859.21;106569;1256;73436;-79
2024/04/25 11:11:24;;;;;;;3.90;3.00;;;;;;;20.94;54.23;98859.46;106665;1253;62296;-83
2024/04/25 11:13:53;;;;;;;4.20;2.90;;;;;;;21.04;54.25;98854.30;106457;1253;60981;-83
2024/04/25 11:16:21;;;;;;;3.60;2.60;;;;;;;21.09;54.52;98843.05;106400;1253;75354;-87
2024/04/25 11:18:49;;;;;;;7.20;3.40;;;;;;;21.10;54.23;98838.68;107297;1253;75012;-84
2024/04/25 11:21:24;;;;;;;5.50;3.40;;;;;;;21.07;54.21;98839.04;106787;1254;73521;-85
2024/04/25 11:23:52;;;;;;;4.60;3.20;;;;;;;21.02;54.17;98833.28;106859;1256;62321;-86
2024/04/25 11:26:20;;;;;;;4.20;3.10;;;;;;;20.95;54.27;98827.02;107102;1253;61204;-84
2024/04/25 11:28:48;;;;;;;4.80;3.10;;;;;;;20.87;54.38;98823.17;108624;1256;75282;-83
2024/04/25 11:31:15;;;;;;;5.10;3.20;;;;;;;20.77;54.50;98825.80;108431;1258;72974;-83
2024/04/25 11:33:42;;;;;;;4.70;2.90;;;;;;;20.67;54.66;98818.59;107776;1256;72691;-83
2024/04/25 11:36:25;;;;;;;8.40;3.50;;;;;;;20.57;55.07;98814.75;106458;1256;60883;-79